Vesper, New York
Current Conditions -  °F | °C
As of 9:15 AM on Tuesday 27 Jan 2015 (Local Time) from KN03 Reporting Station
Light Snow Light Snow  
Wind Chill: 12°   Ceiling: Unl
Heat Index: 12°   Visibility: 10mi
Dew Point:   Wind: 3mph
Humidity: 85%   Direction: 320°NW
Pressure: 29.85"   Gusts: NA
Location:  42.8002°N, 76.1123°W
Report Text: KN03 271415Z AUTO 32003KT 10SM -SN CLR M11/M13 A2985 RMK AO2
Loading
Personal Weather Stations






























Interactive Weather Map New forecast layout! Learn more

10-Day Weather Forecast

Advertisements
Track Severe Weather on mobile